Time;durP1;ratioP1;P1;durP2;ratioP2;P2;SDS_P1;SDS_P2;PMS_P1;PMS_P2;Temp;Humidity;BMP_temperature;BMP_pressure;BME280_temperature;BME280_humidity;BME280_pressure;Samples;Min_cycle;Max_cycle;Signal;HPM_P1;HPM_P2
2022/06/16 00:00:14;;;;;;;6.28;4.10;;;21.50;96.00;;;;;;5046700;28;20036;-69
2022/06/16 00:02:41;;;;;;;6.28;3.88;;;21.50;96.40;;;;;;5056175;28;20025;-69
2022/06/16 00:05:10;;;;;;;4.38;3.75;;;21.50;96.20;;;;;;5047450;28;20021;-69
2022/06/16 00:07:37;;;;;;;6.45;4.20;;;21.50;96.00;;;;;;5055380;28;20037;-69
2022/06/16 00:10:04;;;;;;;6.97;4.53;;;21.40;96.10;;;;;;5060905;28;20039;-69
2022/06/16 00:12:30;;;;;;;6.28;3.78;;;21.40;95.90;;;;;;5054586;28;20163;-69
2022/06/16 00:14:56;;;;;;;9.90;4.60;;;21.40;96.30;;;;;;5055558;28;20034;-69
2022/06/16 00:17:22;;;;;;;6.40;3.97;;;21.40;96.00;;;;;;5054973;28;20040;-69
2022/06/16 00:19:47;;;;;;;6.15;4.93;;;21.40;95.70;;;;;;5054556;28;20482;-69
2022/06/16 00:22:13;;;;;;;4.55;4.15;;;21.40;95.90;;;;;;5056905;28;20051;-69
2022/06/16 00:24:39;;;;;;;7.05;4.70;;;21.30;95.90;;;;;;5065774;28;20540;-69
2022/06/16 00:27:05;;;;;;;8.60;4.65;;;21.30;95.50;;;;;;5058928;28;20035;-69
2022/06/16 00:29:30;;;;;;;5.07;3.80;;;21.30;95.90;;;;;;5049721;28;20428;-69
2022/06/16 00:31:56;;;;;;;5.78;4.55;;;21.30;95.70;;;;;;5061310;28;20025;-69
2022/06/16 00:34:22;;;;;;;5.68;4.20;;;21.30;95.40;;;;;;5060794;28;20420;-69
2022/06/16 00:36:48;;;;;;;5.95;4.20;;;21.30;95.90;;;;;;5053238;28;20291;-69
2022/06/16 00:39:13;;;;;;;5.63;4.55;;;21.30;95.40;;;;;;5057665;28;20534;-69
2022/06/16 00:41:39;;;;;;;8.30;4.50;;;21.20;95.40;;;;;;5044034;28;20040;-69
2022/06/16 00:44:20;;;;;;;7.00;4.28;;;21.20;95.70;;;;;;5050936;28;20035;-69
2022/06/16 00:46:46;;;;;;;7.47;4.38;;;21.20;95.70;;;;;;5050825;28;20036;-69
2022/06/16 00:49:13;;;;;;;7.97;4.00;;;21.20;95.60;;;;;;5046588;28;20033;-69
2022/06/16 00:51:49;;;;;;;5.22;4.13;;;21.20;95.80;;;;;;5055243;28;20027;-69
2022/06/16 00:54:21;;;;;;;6.68;3.88;;;21.20;95.60;;;;;;5053888;28;20021;-69
2022/06/16 00:56:51;;;;;;;9.73;4.43;;;21.00;95.70;;;;;;5052093;28;20056;-68
2022/06/16 00:59:19;;;;;;;6.32;3.83;;;21.10;95.80;;;;;;5054391;28;20465;-69
2022/06/16 01:01:46;;;;;;;7.75;4.20;;;21.00;95.20;;;;;;5058241;28;20048;-69
2022/06/16 01:06:59;;;;;;;8.60;4.35;;;21.00;95.50;;;;;;5052149;28;20056;-69
2022/06/16 01:09:29;;;;;;;7.88;3.90;;;20.90;95.00;;;;;;5049905;28;20032;-69
2022/06/16 01:15:00;;;;;;;6.07;4.18;;;20.90;95.90;;;;;;5050058;28;20476;-69
2022/06/16 01:17:40;;;;;;;6.10;4.10;;;20.90;95.80;;;;;;5046049;28;20074;-69
2022/06/16 01:20:27;;;;;;;6.18;4.43;;;20.80;96.00;;;;;;5046474;28;20059;-69
2022/06/16 01:23:04;;;;;;;8.85;3.90;;;20.80;96.00;;;;;;5045921;28;20025;-69
2022/06/16 01:26:05;;;;;;;5.07;3.97;;;20.80;95.40;;;;;;5048888;28;20064;-69
2022/06/16 01:28:32;;;;;;;6.50;4.75;;;20.70;95.60;;;;;;5046048;28;20037;-69
2022/06/16 01:31:28;;;;;;;7.18;4.68;;;20.70;96.00;;;;;;5053271;28;20032;-69
2022/06/16 01:33:57;;;;;;;6.65;5.07;;;20.60;97.00;;;;;;5052833;28;20362;-69
2022/06/16 01:36:38;;;;;;;5.28;4.22;;;20.50;96.40;;;;;;5051243;28;20120;-69
2022/06/16 01:39:24;;;;;;;7.63;4.80;;;20.50;96.20;;;;;;5049511;28;20107;-69
2022/06/16 01:41:58;;;;;;;5.60;4.30;;;20.50;95.70;;;;;;5044974;28;20926;-69
2022/06/16 01:44:53;;;;;;;5.50;4.18;;;20.50;95.70;;;;;;5052373;28;20401;-68
2022/06/16 01:47:20;;;;;;;9.70;5.10;;;20.40;96.10;;;;;;5054748;28;20013;-68
2022/06/16 01:49:52;;;;;;;6.35;4.65;;;20.40;95.90;;;;;;5046985;28;20053;-69
2022/06/16 01:52:25;;;;;;;5.95;5.13;;;20.40;95.80;;;;;;5053762;28;20013;-68
2022/06/16 01:55:03;;;;;;;6.07;5.30;;;20.30;95.20;;;;;;5050434;28;20485;-69
2022/06/16 01:57:32;;;;;;;7.40;5.07;;;20.30;95.40;;;;;;5047872;28;20064;-68
2022/06/16 02:00:10;;;;;;;7.43;4.60;;;20.20;95.90;;;;;;5048029;28;20100;-69
2022/06/16 02:02:39;;;;;;;8.57;5.70;;;20.20;95.90;;;;;;5045956;28;20104;-69
2022/06/16 02:05:15;;;;;;;7.85;5.30;;;20.10;95.70;;;;;;5049517;28;20036;-69
2022/06/16 02:08:15;;;;;;;6.32;5.32;;;20.10;96.00;;;;;;5051363;28;20024;-69
2022/06/16 02:10:45;;;;;;;6.18;5.00;;;20.00;95.70;;;;;;5048356;28;20036;-69
2022/06/16 02:13:15;;;;;;;5.85;5.25;;;20.00;95.70;;;;;;5052146;28;20032;-69
2022/06/16 02:16:07;;;;;;;7.53;4.95;;;19.90;95.50;;;;;;5052739;28;20034;-68
2022/06/16 02:18:37;;;;;;;8.88;5.22;;;19.90;95.70;;;;;;5051081;28;20474;-69
2022/06/16 02:21:23;;;;;;;6.30;5.25;;;19.80;95.90;;;;;;5046937;28;20485;-68
2022/06/16 02:23:50;;;;;;;5.10;4.60;;;19.80;96.00;;;;;;5054572;28;20485;-69
2022/06/16 02:26:16;;;;;;;7.60;5.55;;;19.80;95.90;;;;;;5047998;28;20017;-69
2022/06/16 02:29:18;;;;;;;11.35;5.45;;;19.70;96.10;;;;;;5054255;28;20041;-69
2022/06/16 02:32:08;;;;;;;6.65;4.93;;;19.60;96.00;;;;;;5054983;28;20520;-68
2022/06/16 02:35:18;;;;;;;6.07;4.80;;;19.60;95.70;;;;;;5051068;28;20071;-68
2022/06/16 02:37:53;;;;;;;6.25;5.03;;;19.50;95.60;;;;;;5002911;28;20038;-68
2022/06/16 02:40:39;;;;;;;7.85;5.00;;;19.50;95.70;;;;;;5004017;28;20040;-68
2022/06/16 02:43:18;;;;;;;8.63;4.55;;;19.50;96.40;;;;;;5031712;28;20064;-69
2022/06/16 02:46:02;;;;;;;7.07;6.38;;;19.40;95.80;;;;;;5050081;28;20029;-69
2022/06/16 02:48:59;;;;;;;8.95;5.47;;;19.40;96.70;;;;;;5052649;28;20043;-68
2022/06/16 02:52:15;;;;;;;9.05;5.35;;;19.30;96.40;;;;;;5046545;28;20033;-68
2022/06/16 02:55:04;;;;;;;7.88;5.03;;;19.20;96.70;;;;;;5072045;28;20028;-68
2022/06/16 02:57:50;;;;;;;7.38;5.68;;;19.20;96.50;;;;;;5048611;28;20040;-69
2022/06/16 03:00:24;;;;;;;11.38;6.53;;;19.10;96.60;;;;;;5049466;28;20043;-68
2022/06/16 03:02:50;;;;;;;8.52;5.95;;;19.10;96.40;;;;;;5056276;28;20052;-68
2022/06/16 03:05:17;;;;;;;8.65;6.18;;;19.00;96.30;;;;;;5058623;28;20473;-68
2022/06/16 03:07:44;;;;;;;7.55;6.50;;;19.00;96.60;;;;;;5055324;28;20452;-68
2022/06/16 03:10:12;;;;;;;8.52;5.80;;;18.90;96.50;;;;;;5049782;28;20385;-68
2022/06/16 03:12:38;;;;;;;7.68;5.68;;;18.80;96.40;;;;;;5049746;28;20024;-68
2022/06/16 03:15:04;;;;;;;6.50;5.10;;;18.90;96.70;;;;;;5050047;28;20021;-68
2022/06/16 03:17:31;;;;;;;11.13;6.45;;;18.80;96.40;;;;;;5053594;28;20104;-69
2022/06/16 03:19:58;;;;;;;7.47;5.57;;;18.80;96.90;;;;;;5053238;28;20024;-69
2022/06/16 03:22:24;;;;;;;9.77;6.53;;;18.70;97.10;;;;;;5048915;28;20106;-69
2022/06/16 03:24:50;;;;;;;7.10;6.28;;;18.60;96.50;;;;;;5050856;28;20167;-69
2022/06/16 03:27:16;;;;;;;10.60;6.85;;;18.60;96.80;;;;;;5049599;28;20028;-69
2022/06/16 03:29:42;;;;;;;7.30;5.55;;;18.60;96.70;;;;;;5051510;28;20009;-69
2022/06/16 03:32:08;;;;;;;9.13;6.25;;;18.50;96.90;;;;;;5054704;28;20025;-69
2022/06/16 03:34:33;;;;;;;7.30;6.07;;;18.50;97.00;;;;;;5051309;28;20714;-69
2022/06/16 03:36:59;;;;;;;8.75;6.80;;;18.40;97.20;;;;;;5049613;28;20056;-69
2022/06/16 03:39:25;;;;;;;7.85;5.78;;;18.40;97.00;;;;;;5052744;28;20098;-69
2022/06/16 03:41:50;;;;;;;8.00;5.55;;;18.30;97.10;;;;;;5049289;28;20457;-69
2022/06/16 03:44:16;;;;;;;7.32;5.93;;;18.30;97.30;;;;;;5052450;28;20029;-69
2022/06/16 03:46:42;;;;;;;7.43;6.22;;;18.30;97.30;;;;;;5053544;28;20025;-69
2022/06/16 03:49:08;;;;;;;6.60;6.00;;;18.20;97.00;;;;;;5051949;28;20358;-69
2022/06/16 03:51:34;;;;;;;8.35;6.38;;;18.30;97.10;;;;;;5060233;28;20053;-69
2022/06/16 03:54:00;;;;;;;8.25;6.38;;;18.20;97.30;;;;;;5051643;28;20115;-69
2022/06/16 03:56:25;;;;;;;8.70;6.05;;;18.20;97.30;;;;;;5061594;28;20017;-68
2022/06/16 03:58:53;;;;;;;9.88;6.85;;;18.20;97.20;;;;;;5048187;28;20029;-69
2022/06/16 04:01:19;;;;;;;9.32;6.05;;;18.20;97.60;;;;;;5057898;28;20016;-69
2022/06/16 04:04:00;;;;;;;9.63;5.90;;;18.20;97.90;;;;;;5047591;28;20031;-69
2022/06/16 04:06:27;;;;;;;8.98;6.57;;;18.20;97.90;;;;;;5056713;28;20016;-68
2022/06/16 04:08:53;;;;;;;6.85;6.18;;;18.10;97.50;;;;;;5051322;28;20029;-68
2022/06/16 04:11:27;;;;;;;9.60;6.80;;;18.10;97.30;;;;;;5047965;28;20536;-68
2022/06/16 04:13:57;;;;;;;10.80;6.35;;;18.00;97.40;;;;;;5056065;28;20474;-68
2022/06/16 04:16:23;;;;;;;12.35;6.03;;;18.00;97.20;;;;;;5046793;28;20123;-69
2022/06/16 04:18:49;;;;;;;12.52;5.97;;;18.00;98.60;;;;;;5050533;28;20014;-69
2022/06/16 04:21:15;;;;;;;10.35;6.20;;;18.00;98.40;;;;;;5048749;28;20915;-70
2022/06/16 04:23:41;;;;;;;7.13;5.93;;;17.90;98.50;;;;;;5052425;28;20021;-68
2022/06/16 04:26:06;;;;;;;9.18;6.30;;;17.90;98.30;;;;;;5053968;28;20470;-70
2022/06/16 04:28:32;;;;;;;8.23;6.88;;;17.80;98.30;;;;;;5044778;28;20473;-68
2022/06/16 04:30:59;;;;;;;8.85;6.90;;;17.80;98.00;;;;;;5048736;28;20021;-68
2022/06/16 04:33:25;;;;;;;9.30;5.28;;;17.90;98.10;;;;;;5048907;28;20025;-69
2022/06/16 04:35:52;;;;;;;9.75;6.10;;;17.90;98.60;;;;;;5049357;28;20452;-69
2022/06/16 04:38:18;;;;;;;12.38;6.47;;;17.90;98.30;;;;;;5052428;28;20492;-69
2022/06/16 04:40:44;;;;;;;10.05;6.72;;;17.80;98.90;;;;;;5050364;28;20029;-68
2022/06/16 04:43:10;;;;;;;9.55;6.72;;;17.80;98.80;;;;;;5053709;28;20078;-68
2022/06/16 04:45:37;;;;;;;6.75;6.15;;;17.80;98.90;;;;;;5053065;28;20024;-68
2022/06/16 04:48:03;;;;;;;6.65;5.93;;;17.80;98.70;;;;;;5047185;28;20025;-68
2022/06/16 04:50:29;;;;;;;7.13;5.53;;;17.80;99.30;;;;;;5048004;28;20124;-69
2022/06/16 04:52:54;;;;;;;7.68;6.88;;;17.80;99.90;;;;;;5052665;28;20024;-69
2022/06/16 04:55:20;;;;;;;10.85;6.25;;;17.80;99.90;;;;;;5054428;28;20064;-69
2022/06/16 04:57:46;;;;;;;7.38;5.97;;;17.90;98.80;;;;;;5050464;28;20032;-69
2022/06/16 05:00:15;;;;;;;8.35;6.50;;;17.90;99.10;;;;;;5049439;28;20481;-70
2022/06/16 05:02:41;;;;;;;11.95;7.82;;;17.90;98.80;;;;;;5042622;28;20025;-70
2022/06/16 05:05:07;;;;;;;10.70;6.88;;;17.90;98.80;;;;;;5051299;28;20029;-70
2022/06/16 05:07:33;;;;;;;9.65;7.88;;;17.90;99.20;;;;;;5046788;28;20369;-70
2022/06/16 05:10:00;;;;;;;9.23;7.13;;;17.90;99.90;;;;;;5046940;28;20174;-70
2022/06/16 05:12:25;;;;;;;8.63;6.57;;;17.90;99.10;;;;;;5060514;28;20025;-69
2022/06/16 05:14:51;;;;;;;8.05;7.15;;;17.90;98.60;;;;;;5062067;28;20037;-70
2022/06/16 05:17:17;;;;;;;11.00;7.20;;;18.00;99.50;;;;;;5056370;28;20389;-69
2022/06/16 05:19:43;;;;;;;9.13;6.88;;;18.00;99.10;;;;;;5051535;28;20386;-70
2022/06/16 05:22:08;;;;;;;8.43;7.20;;;18.00;99.70;;;;;;5058102;28;20028;-70
2022/06/16 05:24:34;;;;;;;10.57;7.57;;;17.90;99.90;;;;;;5048696;28;20416;-69
2022/06/16 05:27:04;;;;;;;9.48;7.38;;;18.00;99.90;;;;;;5032500;28;20025;-70
2022/06/16 05:29:31;;;;;;;10.80;7.70;;;17.90;99.90;;;;;;5042249;28;20052;-69
2022/06/16 05:31:57;;;;;;;10.68;7.43;;;17.90;99.90;;;;;;5052974;28;20488;-70
2022/06/16 05:34:23;;;;;;;9.05;7.47;;;17.90;99.50;;;;;;5052406;28;20067;-70
2022/06/16 05:36:48;;;;;;;9.43;7.00;;;18.00;99.50;;;;;;5045901;28;20080;-70
2022/06/16 05:39:14;;;;;;;9.60;7.40;;;18.00;99.40;;;;;;5035786;28;20025;-70
2022/06/16 05:41:41;;;;;;;9.38;7.30;;;18.00;99.80;;;;;;5053165;28;20140;-70
2022/06/16 05:44:08;;;;;;;9.43;7.65;;;18.00;99.80;;;;;;5052792;28;20119;-70
2022/06/16 05:46:35;;;;;;;17.05;7.55;;;17.90;99.90;;;;;;5052817;28;20025;-70
2022/06/16 05:49:01;;;;;;;10.07;6.80;;;17.90;99.90;;;;;;5053023;28;20382;-71
2022/06/16 05:51:26;;;;;;;8.10;6.47;;;17.90;99.80;;;;;;5041127;28;20025;-70
2022/06/16 05:53:52;;;;;;;8.82;6.43;;;18.00;99.90;;;;;;5070817;28;20078;-70
2022/06/16 05:56:18;;;;;;;7.40;6.60;;;18.00;99.90;;;;;;5042467;28;20044;-70
2022/06/16 05:58:45;;;;;;;8.20;6.00;;;18.00;99.80;;;;;;5048252;28;20029;-70
2022/06/16 06:01:13;;;;;;;7.35;5.97;;;18.00;99.90;;;;;;5052668;28;20048;-71
2022/06/16 06:03:41;;;;;;;8.38;6.35;;;17.90;99.90;;;;;;5052341;28;20029;-70
2022/06/16 06:06:07;;;;;;;8.27;6.03;;;17.90;99.90;;;;;;5049642;28;20033;-71
2022/06/16 06:17:13;;;;;;;8.52;5.72;;;18.20;99.90;;;;;;5046666;28;20110;-70
2022/06/16 06:19:39;;;;;;;10.13;6.32;;;18.20;99.90;;;;;;5042474;28;20067;-70
2022/06/16 06:22:13;;;;;;;7.03;4.78;;;18.20;99.90;;;;;;5040926;28;20100;-70
2022/06/16 06:24:50;;;;;;;8.75;4.82;;;18.10;99.90;;;;;;5044026;28;20100;-70
2022/06/16 06:27:26;;;;;;;12.45;5.47;;;18.10;99.00;;;;;;5040873;28;20037;-70
2022/06/16 06:29:52;;;;;;;10.88;5.43;;;18.20;99.10;;;;;;5042404;28;20068;-70
2022/06/16 06:32:20;;;;;;;9.02;4.80;;;18.30;98.80;;;;;;5050956;28;20045;-70
2022/06/16 06:34:46;;;;;;;8.27;4.63;;;18.40;98.40;;;;;;5052289;28;20470;-70
2022/06/16 06:37:14;;;;;;;8.32;4.00;;;18.40;97.80;;;;;;5054633;28;20040;-70
2022/06/16 06:39:40;;;;;;;4.72;3.75;;;18.60;98.20;;;;;;5038819;28;20466;-70
2022/06/16 06:42:06;;;;;;;5.20;3.65;;;18.60;97.70;;;;;;5036637;28;20033;-70
2022/06/16 06:44:32;;;;;;;4.53;3.53;;;18.70;97.60;;;;;;5035691;28;20048;-70
2022/06/16 06:46:58;;;;;;;4.50;3.13;;;18.70;97.40;;;;;;5035850;28;20040;-71
2022/06/16 06:49:24;;;;;;;4.03;3.35;;;18.80;96.90;;;;;;5036299;28;20474;-70
2022/06/16 06:51:50;;;;;;;5.32;3.08;;;18.90;97.20;;;;;;5035523;28;20021;-71
2022/06/16 06:54:17;;;;;;;4.88;3.40;;;19.10;96.10;;;;;;5051217;28;20095;-71
2022/06/16 06:56:43;;;;;;;5.13;2.97;;;19.30;96.50;;;;;;5056383;28;20060;-71
2022/06/16 06:59:18;;;;;;;7.55;3.15;;;19.50;96.80;;;;;;5055620;28;20029;-71
2022/06/16 07:01:46;;;;;;;5.68;2.88;;;19.70;95.70;;;;;;5055708;28;20100;-71
2022/06/16 07:04:12;;;;;;;7.35;2.90;;;19.80;95.80;;;;;;5056001;28;20025;-70
2022/06/16 07:06:38;;;;;;;4.72;2.90;;;19.90;96.50;;;;;;5055656;28;20048;-71
2022/06/16 07:09:04;;;;;;;5.22;3.42;;;20.00;95.20;;;;;;5055189;28;20107;-71
2022/06/16 07:11:30;;;;;;;8.13;3.10;;;20.30;94.30;;;;;;5055587;28;20100;-71
2022/06/16 07:13:56;;;;;;;4.38;2.90;;;20.60;94.50;;;;;;5055464;28;20052;-71
2022/06/16 07:16:22;;;;;;;6.05;2.72;;;20.80;94.30;;;;;;5039707;28;20037;-71
2022/06/16 07:18:48;;;;;;;4.95;2.63;;;20.90;94.50;;;;;;5034760;28;20021;-72
2022/06/16 07:21:14;;;;;;;3.10;2.67;;;20.80;95.50;;;;;;5034154;28;20152;-71
2022/06/16 07:23:41;;;;;;;3.33;2.22;;;21.00;95.40;;;;;;5036958;28;20071;-70
2022/06/16 07:26:08;;;;;;;4.80;2.70;;;21.20;93.60;;;;;;5055880;28;20028;-72
2022/06/16 07:28:34;;;;;;;4.97;2.40;;;21.30;92.20;;;;;;5053944;28;20431;-73
2022/06/16 07:31:00;;;;;;;5.15;2.63;;;21.50;93.40;;;;;;5054823;28;20025;-71
2022/06/16 07:33:25;;;;;;;4.28;3.05;;;21.50;92.50;;;;;;5054663;28;20035;-71
2022/06/16 07:35:53;;;;;;;4.53;2.70;;;21.60;92.00;;;;;;5054359;28;20122;-70
2022/06/16 07:38:20;;;;;;;3.65;2.30;;;21.80;92.00;;;;;;5049274;28;20021;-71
2022/06/16 07:40:46;;;;;;;4.03;2.20;;;21.90;91.50;;;;;;5054055;28;20056;-71
2022/06/16 07:43:12;;;;;;;2.58;2.38;;;22.10;90.90;;;;;;5055193;28;20067;-71
2022/06/16 07:45:39;;;;;;;3.50;2.30;;;22.20;89.70;;;;;;5053509;28;20028;-71
2022/06/16 07:48:08;;;;;;;5.72;2.47;;;22.20;91.20;;;;;;5054069;28;20049;-71
2022/06/16 07:50:36;;;;;;;4.32;2.50;;;22.40;90.30;;;;;;5054738;28;20554;-71
2022/06/16 07:53:04;;;;;;;4.50;2.13;;;22.40;90.30;;;;;;5051039;28;20021;-72
2022/06/16 07:55:30;;;;;;;4.13;2.22;;;22.50;91.60;;;;;;5035343;28;20033;-71
2022/06/16 07:57:55;;;;;;;3.03;1.80;;;22.50;89.30;;;;;;5035303;28;20382;-71
2022/06/16 08:00:24;;;;;;;4.10;2.10;;;22.60;90.70;;;;;;5045964;28;20033;-71
2022/06/16 08:02:51;;;;;;;3.85;2.00;;;22.60;91.50;;;;;;5053780;28;20193;-71
2022/06/16 08:05:17;;;;;;;3.67;2.20;;;22.60;88.80;;;;;;5054317;28;20462;-71
2022/06/16 08:07:43;;;;;;;2.83;1.73;;;22.80;91.50;;;;;;5051902;28;20420;-71
2022/06/16 08:10:14;;;;;;;3.90;1.80;;;23.00;88.90;;;;;;5053437;28;20021;-71
2022/06/16 08:12:40;;;;;;;4.97;2.28;;;23.10;89.30;;;;;;5054833;28;20075;-71
2022/06/16 08:15:06;;;;;;;3.25;2.10;;;23.10;90.70;;;;;;5054352;28;20033;-71
2022/06/16 08:17:34;;;;;;;4.20;1.88;;;23.20;89.20;;;;;;5054990;28;20036;-71
2022/06/16 08:20:01;;;;;;;3.70;2.25;;;23.40;88.10;;;;;;5054796;28;20017;-71
2022/06/16 08:22:27;;;;;;;4.65;2.10;;;23.60;88.20;;;;;;5054300;28;20029;-71
2022/06/16 08:24:53;;;;;;;3.22;1.75;;;23.70;83.60;;;;;;5053942;28;20036;-71
2022/06/16 08:27:21;;;;;;;3.58;1.75;;;23.80;87.60;;;;;;5054383;28;20409;-71
2022/06/16 08:29:47;;;;;;;3.47;2.13;;;23.70;86.10;;;;;;5054369;28;20025;-71
2022/06/16 08:32:15;;;;;;;1.60;1.50;;;23.90;87.00;;;;;;5056115;28;20025;-71
2022/06/16 08:34:41;;;;;;;2.25;1.67;;;24.00;83.90;;;;;;5054542;28;20052;-71
2022/06/16 08:37:07;;;;;;;4.25;2.28;;;24.20;83.90;;;;;;5054402;28;20190;-71
2022/06/16 08:39:33;;;;;;;3.28;1.67;;;24.30;83.60;;;;;;5057834;28;20154;-71
2022/06/16 08:42:01;;;;;;;3.65;1.65;;;24.40;87.40;;;;;;5064537;28;20026;-72
2022/06/16 08:45:05;;;;;;;5.03;2.47;;;24.50;84.50;;;;;;5034304;28;20060;-71
2022/06/16 08:47:39;;;;;;;3.55;1.60;;;24.60;83.50;;;;;;5041978;28;20504;-70
2022/06/16 08:50:44;;;;;;;3.25;2.13;;;24.50;85.50;;;;;;5033951;28;20071;-71
2022/06/16 08:53:16;;;;;;;3.70;1.85;;;24.40;82.60;;;;;;5043140;28;20068;-71
2022/06/16 08:55:48;;;;;;;3.13;2.00;;;24.20;86.50;;;;;;5033985;28;20034;-70
2022/06/16 08:58:27;;;;;;;3.55;1.90;;;24.30;82.80;;;;;;5033829;28;20021;-71
2022/06/16 09:01:08;;;;;;;7.25;1.90;;;24.40;81.80;;;;;;5046777;28;20029;-70
2022/06/16 09:03:51;;;;;;;3.65;1.75;;;24.70;83.40;;;;;;5043656;28;20014;-70
2022/06/16 09:06:38;;;;;;;3.10;1.80;;;24.90;85.30;;;;;;5043821;28;20017;-70
2022/06/16 09:09:12;;;;;;;4.18;1.85;;;24.90;83.10;;;;;;5047364;28;20033;-70
2022/06/16 09:11:50;;;;;;;3.83;2.10;;;24.90;84.40;;;;;;5047700;28;20024;-70
2022/06/16 09:18:03;;;;;;;2.00;1.85;;;25.20;83.40;;;;;;5047903;28;20558;-71
2022/06/16 09:20:43;;;;;;;2.88;2.05;;;25.40;85.00;;;;;;5036355;28;20033;-71
2022/06/16 09:23:36;;;;;;;5.35;1.90;;;25.60;80.20;;;;;;5042361;28;20103;-70
2022/06/16 09:26:01;;;;;;;5.18;2.10;;;25.80;80.20;;;;;;5043777;28;20032;-70
2022/06/16 09:28:37;;;;;;;5.30;2.28;;;25.80;82.40;;;;;;5045137;28;20029;-71
2022/06/16 09:31:13;;;;;;;4.18;2.33;;;25.90;83.40;;;;;;5045410;28;20029;-71
2022/06/16 09:33:43;;;;;;;5.82;2.38;;;26.10;81.50;;;;;;5053338;28;20028;-71
2022/06/16 09:36:29;;;;;;;4.18;2.10;;;25.90;81.30;;;;;;5052847;28;20024;-71
2022/06/16 09:39:02;;;;;;;3.75;2.13;;;25.70;83.70;;;;;;5032074;28;20484;-71
2022/06/16 09:44:47;;;;;;;6.28;2.20;;;25.90;80.50;;;;;;5033781;28;20486;-70
2022/06/16 09:47:18;;;;;;;4.07;1.75;;;26.20;80.60;;;;;;5037216;28;20109;-71
2022/06/16 09:49:50;;;;;;;5.78;2.03;;;26.40;83.60;;;;;;5072993;28;20050;-72
2022/06/16 09:52:33;;;;;;;3.13;2.13;;;26.40;83.60;;;;;;5073015;28;20020;-71
2022/06/16 09:55:07;;;;;;;3.55;2.40;;;26.50;80.40;;;;;;5072834;28;20027;-70
2022/06/16 09:57:47;;;;;;;6.35;1.90;;;26.60;79.60;;;;;;5069587;28;20036;-71
2022/06/16 10:00:22;;;;;;;5.03;2.38;;;26.60;82.20;;;;;;5051228;28;20029;-71
2022/06/16 10:02:58;;;;;;;4.30;2.30;;;26.90;81.00;;;;;;5033982;28;20100;-71
2022/06/16 10:05:57;;;;;;;8.07;2.55;;;26.90;79.10;;;;;;5036286;28;20537;-70
2022/06/16 10:09:05;;;;;;;6.43;2.17;;;27.00;79.00;;;;;;5058693;28;20381;-71
2022/06/16 10:11:48;;;;;;;6.30;2.90;;;27.00;82.40;;;;;;5055921;28;20120;-71
2022/06/16 10:14:18;;;;;;;3.75;2.13;;;27.00;80.00;;;;;;5051821;28;20036;-71
2022/06/16 10:16:58;;;;;;;3.25;2.38;;;27.10;80.50;;;;;;5047784;28;20064;-71
2022/06/16 10:19:27;;;;;;;3.63;2.20;;;27.20;78.30;;;;;;5030503;28;20036;-71
2022/06/16 10:21:53;;;;;;;3.30;1.88;;;27.20;81.50;;;;;;5022810;28;20029;-71
2022/06/16 10:24:23;;;;;;;5.80;2.40;;;27.30;80.70;;;;;;5059739;28;20025;-71
2022/06/16 10:26:49;;;;;;;3.47;2.10;;;27.30;78.60;;;;;;5054569;28;20389;-70
2022/06/16 10:29:25;;;;;;;6.32;2.55;;;27.40;79.10;;;;;;5066947;28;20492;-71
2022/06/16 10:31:53;;;;;;;2.85;2.55;;;27.50;78.60;;;;;;5061086;28;20439;-71
2022/06/16 10:34:39;;;;;;;4.38;2.45;;;27.50;80.60;;;;;;5058359;28;20556;-72
2022/06/16 10:37:12;;;;;;;3.28;2.65;;;27.30;76.30;;;;;;5038719;28;20115;-70
2022/06/16 10:39:49;;;;;;;4.45;2.40;;;27.30;79.20;;;;;;5071018;28;20453;-70
2022/06/16 10:42:26;;;;;;;5.28;3.03;;;27.50;79.30;;;;;;5060317;28;20033;-70
2022/06/16 10:45:05;;;;;;;4.22;2.38;;;27.50;80.40;;;;;;5061755;28;20110;-71
2022/06/16 10:47:35;;;;;;;3.35;2.05;;;27.70;77.60;;;;;;5049821;28;20095;-71
2022/06/16 10:50:04;;;;;;;4.22;3.03;;;27.70;80.20;;;;;;5053894;28;20032;-71
2022/06/16 10:52:35;;;;;;;4.68;2.10;;;27.60;80.60;;;;;;5039070;28;20026;-71
2022/06/16 10:55:12;;;;;;;7.43;2.53;;;27.80;80.00;;;;;;5065723;28;20017;-71
2022/06/16 10:58:05;;;;;;;6.93;2.83;;;28.00;78.70;;;;;;5058865;28;20036;-70
2022/06/16 11:00:33;;;;;;;2.38;2.15;;;28.00;78.90;;;;;;5054515;28;20430;-71
2022/06/16 11:03:01;;;;;;;3.45;2.20;;;28.10;80.60;;;;;;5048855;28;20032;-71
2022/06/16 11:05:30;;;;;;;2.97;2.53;;;28.20;79.20;;;;;;5054322;28;20070;-71
2022/06/16 11:08:06;;;;;;;5.03;2.75;;;28.20;79.40;;;;;;5049767;28;20055;-71
2022/06/16 11:10:35;;;;;;;6.20;2.63;;;28.20;78.60;;;;;;5048297;28;20029;-71
2022/06/16 11:13:01;;;;;;;4.45;2.63;;;28.20;76.20;;;;;;5062349;28;20056;-71
2022/06/16 11:15:35;;;;;;;2.88;2.47;;;28.30;77.20;;;;;;5047562;28;20065;-71
2022/06/16 11:18:04;;;;;;;6.30;2.50;;;28.20;77.80;;;;;;5061629;28;20511;-71
2022/06/16 11:20:35;;;;;;;7.15;2.78;;;28.10;80.70;;;;;;5048769;28;20107;-71
2022/06/16 11:23:24;;;;;;;4.63;2.85;;;28.20;80.20;;;;;;5051726;28;20091;-71
2022/06/16 11:26:15;;;;;;;3.95;3.42;;;28.30;79.10;;;;;;5065810;28;20024;-71
2022/06/16 11:28:50;;;;;;;5.30;2.70;;;28.30;82.00;;;;;;5058760;28;20032;-71
2022/06/16 11:31:25;;;;;;;4.65;2.53;;;28.40;77.10;;;;;;5058282;28;20028;-71
2022/06/16 11:34:21;;;;;;;4.55;3.17;;;28.10;80.30;;;;;;5060106;28;20035;-71
2022/06/16 11:37:09;;;;;;;5.10;2.83;;;28.40;79.40;;;;;;5056260;28;20375;-71
2022/06/16 11:39:56;;;;;;;3.78;2.72;;;28.60;79.40;;;;;;5070483;28;20052;-71
2022/06/16 11:42:40;;;;;;;7.07;3.67;;;28.80;77.90;;;;;;5062297;28;20040;-71
2022/06/16 11:45:21;;;;;;;8.35;3.17;;;28.70;78.50;;;;;;5040323;28;20104;-72
2022/06/16 11:48:13;;;;;;;5.90;3.10;;;28.60;78.30;;;;;;5065682;28;20123;-71
2022/06/16 11:51:00;;;;;;;8.77;4.13;;;28.80;77.60;;;;;;5044854;28;20026;-71
2022/06/16 11:53:38;;;;;;;5.38;3.05;;;28.90;77.70;;;;;;5052763;28;20107;-72
2022/06/16 11:56:47;;;;;;;6.80;3.40;;;29.00;77.70;;;;;;5058201;28;20037;-71
2022/06/16 11:59:16;;;;;;;5.10;3.25;;;28.90;76.30;;;;;;5042855;28;20432;-71
2022/06/16 12:01:48;;;;;;;4.30;3.15;;;29.00;75.10;;;;;;5058358;28;20475;-72
2022/06/16 12:04:29;;;;;;;7.82;3.30;;;28.80;79.00;;;;;;5061163;28;20036;-71
2022/06/16 12:07:14;;;;;;;7.72;4.38;;;28.90;78.60;;;;;;5070777;28;20028;-71
2022/06/16 12:10:00;;;;;;;4.35;3.22;;;29.00;77.80;;;;;;5057585;28;20017;-71
2022/06/16 12:12:34;;;;;;;4.05;3.70;;;29.10;74.80;;;;;;5058483;28;20030;-71
2022/06/16 12:15:23;;;;;;;4.85;2.92;;;29.00;78.20;;;;;;5069592;28;20033;-72
2022/06/16 12:18:11;;;;;;;4.70;3.33;;;29.20;77.90;;;;;;5054466;28;20044;-72
2022/06/16 12:21:07;;;;;;;4.80;3.17;;;29.30;75.80;;;;;;5044431;28;20017;-73
2022/06/16 12:23:39;;;;;;;6.15;3.15;;;29.30;77.50;;;;;;5048503;28;20059;-72
2022/06/16 12:26:09;;;;;;;6.82;3.50;;;29.10;77.90;;;;;;5062280;28;20076;-72
2022/06/16 12:29:05;;;;;;;5.85;3.20;;;29.20;79.40;;;;;;5068776;28;20122;-71
2022/06/16 12:31:51;;;;;;;5.57;3.05;;;29.30;76.90;;;;;;5051822;28;20023;-72
2022/06/16 12:34:36;;;;;;;4.35;2.50;;;29.50;76.30;;;;;;5059427;28;20059;-71
2022/06/16 12:37:16;;;;;;;5.13;2.45;;;29.40;76.50;;;;;;5070331;28;20075;-71
2022/06/16 12:39:48;;;;;;;3.33;2.55;;;29.50;76.60;;;;;;5064618;28;20021;-71
2022/06/16 12:42:19;;;;;;;4.05;2.88;;;29.50;76.50;;;;;;5060363;28;20120;-71
2022/06/16 12:44:55;;;;;;;4.93;2.90;;;29.50;75.80;;;;;;5062668;28;20028;-71
2022/06/16 12:47:44;;;;;;;4.47;3.08;;;29.50;72.30;;;;;;5067954;28;20063;-71
2022/06/16 12:50:18;;;;;;;3.90;2.67;;;29.50;72.90;;;;;;5047400;28;20168;-71
2022/06/16 12:52:56;;;;;;;3.92;3.00;;;29.50;77.80;;;;;;5041416;28;20075;-72
2022/06/16 12:55:30;;;;;;;3.78;3.05;;;29.60;80.20;;;;;;5067176;28;20041;-71
2022/06/16 12:58:22;;;;;;;4.75;2.60;;;29.60;74.90;;;;;;5051262;28;20442;-72
2022/06/16 13:00:50;;;;;;;;;;;29.50;74.10;;;;;;5051130;28;20095;-71
2022/06/16 13:03:19;;;;;;;3.97;2.50;;;29.50;76.30;;;;;;5061092;28;19909;-71
2022/06/16 13:05:46;;;;;;;3.85;2.42;;;29.30;76.00;;;;;;5056407;28;20043;-71
2022/06/16 13:08:12;;;;;;;2.85;2.05;;;29.40;76.20;;;;;;5065878;28;20039;-71
2022/06/16 13:10:46;;;;;;;5.50;2.47;;;29.20;75.60;;;;;;5056808;28;20691;-73
2022/06/16 13:13:22;;;;;;;8.15;2.78;;;29.20;75.50;;;;;;5050812;28;20025;-72
2022/06/16 13:15:54;;;;;;;3.13;2.58;;;29.20;75.80;;;;;;5061991;28;20029;-72
2022/06/16 13:18:25;;;;;;;4.72;2.70;;;29.30;74.70;;;;;;5066507;28;20465;-72
2022/06/16 13:20:59;;;;;;;5.50;2.30;;;29.30;72.90;;;;;;5053886;28;20115;-72
2022/06/16 13:23:39;;;;;;;3.85;2.33;;;29.40;74.90;;;;;;5051027;28;20503;-71
2022/06/16 13:26:46;;;;;;;4.05;2.40;;;29.50;75.50;;;;;;5060716;28;20415;-71
2022/06/16 13:29:18;;;;;;;3.83;2.58;;;29.50;74.80;;;;;;5044564;28;20056;-71
2022/06/16 13:31:59;;;;;;;3.72;2.70;;;29.20;73.50;;;;;;5050468;28;20023;-71
2022/06/16 13:34:53;;;;;;;5.18;2.58;;;29.10;78.70;;;;;;5064138;28;20040;-72